Time;durP1;ratioP1;P1;durP2;ratioP2;P2;SDS_P1;SDS_P2;PMS_P1;PMS_P2;Temp;Humidity;BMP_temperature;BMP_pressure;BME280_temperature;BME280_humidity;BME280_pressure;Samples;Min_cycle;Max_cycle;Signal;HPM_P1;HPM_P2
2021/04/26 00:01:27;;;;;;;;;17.00;15.00;;;;;10.05;33.76;99107.16;6289574;27;98103;-63
2021/04/26 00:04:29;;;;;;;;;18.00;17.40;;;;;10.17;33.44;99130.56;6279475;27;97016;-63
2021/04/26 00:07:32;;;;;;;;;17.20;16.00;;;;;10.11;33.54;99122.50;6287558;27;97877;-62
2021/04/26 00:10:34;;;;;;;;;20.60;18.00;;;;;10.11;33.65;99131.41;6273405;27;96552;-63
2021/04/26 00:13:37;;;;;;;;;23.00;21.00;;;;;9.83;33.86;99106.59;6289672;27;98092;-63
2021/04/26 00:16:39;;;;;;;;;21.60;19.00;;;;;10.00;33.64;99137.44;6289982;27;99025;-62
2021/04/26 00:19:42;;;;;;;;;18.00;16.00;;;;;9.98;34.19;99131.41;6277908;27;97135;-63
2021/04/26 00:22:44;;;;;;;;;20.00;17.80;;;;;9.94;34.25;99136.41;6280260;27;98091;-62
2021/04/26 00:25:47;;;;;;;;;18.60;17.00;;;;;9.89;34.23;99140.78;6283010;27;98074;-62
2021/04/26 00:28:50;;;;;;;;;21.40;18.00;;;;;9.83;34.05;99138.91;6289543;27;99440;-63
2021/04/26 00:31:52;;;;;;;;;21.25;18.00;;;;;9.80;33.67;99152.81;6288514;27;96919;-63
2021/04/26 00:34:55;;;;;;;;;26.60;22.60;;;;;9.75;34.32;99142.66;6289118;27;97464;-62
2021/04/26 00:37:57;;;;;;;;;21.00;20.00;;;;;9.77;33.89;99140.63;6289615;27;96990;-62
2021/04/26 00:40:59;;;;;;;;;20.40;18.00;;;;;9.71;33.87;99146.00;6280658;27;96536;-62
2021/04/26 00:44:03;;;;;;;;;24.40;21.40;;;;;9.63;33.96;99133.56;6289031;27;98114;-62
2021/04/26 00:47:05;;;;;;;;;21.50;19.00;;;;;9.67;33.93;99142.06;6289248;27;96531;-63
2021/04/26 00:50:10;;;;;;;;;24.00;21.00;;;;;9.68;33.98;99138.31;6283129;27;98520;-62
2021/04/26 00:53:13;;;;;;;;;28.40;25.00;;;;;9.58;34.03;99131.50;6279099;27;98218;-62
2021/04/26 00:56:15;;;;;;;;;29.20;25.00;;;;;9.61;34.04;99137.53;6282899;27;96911;-62
2021/04/26 00:59:19;;;;;;;;;29.60;25.40;;;;;9.50;34.23;99138.97;6284469;27;97509;-62
2021/04/26 01:02:24;;;;;;;;;29.00;25.00;;;;;9.45;34.41;99139.59;6286443;27;99613;-63
2021/04/26 01:05:28;;;;;;;;;29.60;26.00;;;;;9.45;34.46;99138.78;6287101;27;96663;-62
2021/04/26 01:08:31;;;;;;;;;26.60;24.60;;;;;9.41;34.84;99145.63;6288070;27;96909;-62
2021/04/26 01:12:12;;;;;;;;;30.00;27.00;;;;;9.34;34.65;99142.91;6247019;27;98069;-62
2021/04/26 01:15:23;;;;;;;;;32.00;24.60;;;;;9.32;34.97;99133.41;6288910;27;99065;-63
2021/04/26 01:18:32;;;;;;;;;31.40;26.80;;;;;9.19;35.17;99144.97;6287765;27;97123;-64
2021/04/26 01:22:15;;;;;;;;;31.00;28.00;;;;;9.22;35.25;99141.91;6284518;27;96910;-62
2021/04/26 01:25:20;;;;;;;;;30.00;26.50;;;;;9.21;35.41;99142.09;6287407;27;98084;-62
2021/04/26 01:28:36;;;;;;;;;26.80;25.80;;;;;9.15;35.50;99141.06;6288203;27;97709;-62
2021/04/26 01:31:51;;;;;;;;;32.40;28.40;;;;;9.15;35.38;99130.28;6280031;27;99097;-62
2021/04/26 01:34:56;;;;;;;;;34.20;28.00;;;;;9.15;35.56;99130.28;6288307;27;98063;-62
2021/04/26 01:38:11;;;;;;;;;34.00;28.80;;;;;9.07;35.79;99131.34;6287054;27;97446;-62
2021/04/26 01:41:15;;;;;;;;;36.00;31.00;;;;;9.06;35.90;99127.00;6277913;27;97823;-62
2021/04/26 01:44:19;;;;;;;;;34.60;28.20;;;;;9.13;35.86;99124.31;6286390;27;97271;-62
2021/04/26 01:47:22;;;;;;;;;35.67;31.67;;;;;9.25;35.76;99119.13;6286261;27;97428;-63
2021/04/26 01:50:26;;;;;;;;;35.80;31.00;;;;;9.26;35.79;99116.22;6275120;27;96631;-62
2021/04/26 01:53:29;;;;;;;;;36.80;31.60;;;;;9.30;35.64;99117.47;6287682;27;96459;-63
2021/04/26 01:56:34;;;;;;;;;35.00;30.50;;;;;9.37;35.49;99123.69;6278141;27;96680;-62
2021/04/26 01:59:40;;;;;;;;;35.00;30.00;;;;;9.31;35.44;99112.91;6273838;27;97562;-62
2021/04/26 02:02:44;;;;;;;;;38.00;32.00;;;;;9.35;35.57;99108.78;6283346;27;96840;-62
2021/04/26 02:05:51;;;;;;;;;31.20;26.00;;;;;9.30;35.59;99109.41;6279434;27;98047;-62
2021/04/26 02:08:55;;;;;;;;;33.80;30.00;;;;;9.35;35.48;99109.59;6276057;27;97010;-62
2021/04/26 02:11:58;;;;;;;;;44.25;33.25;;;;;9.34;35.69;99109.78;6275143;27;96940;-62
2021/04/26 02:15:10;;;;;;;;;39.20;32.60;;;;;9.31;35.64;99108.38;6286435;27;97215;-62
2021/04/26 02:18:13;;;;;;;;;35.00;30.20;;;;;9.29;35.75;99107.72;6286422;27;97270;-63
2021/04/26 02:21:16;;;;;;;;;30.50;28.00;;;;;9.23;35.85;99091.63;6286163;27;96677;-62
2021/04/26 02:24:19;;;;;;;;;32.60;27.00;;;;;9.27;35.68;99101.75;6286027;27;97756;-62
2021/04/26 02:27:21;;;;;;;;;31.20;27.20;;;;;9.22;35.58;99087.25;6278212;27;97076;-62
2021/04/26 02:30:24;;;;;;;;;27.60;23.40;;;;;9.22;35.62;99095.34;6284197;27;99834;-62
2021/04/26 02:33:32;;;;;;;;;30.40;26.40;;;;;9.21;35.27;99085.59;6286090;27;98062;-62
2021/04/26 02:37:04;;;;;;;;;28.00;23.00;;;;;9.16;35.35;99083.53;6282236;27;97699;-63
2021/04/26 02:40:10;;;;;;;;;25.60;22.00;;;;;9.23;35.12;99086.25;6281638;27;98054;-62
2021/04/26 02:43:14;;;;;;;;;27.00;23.00;;;;;9.24;35.23;99079.78;6286008;27;97672;-63
2021/04/26 02:46:22;;;;;;;;;26.00;24.00;;;;;9.04;35.04;99044.88;6268789;27;96625;-62
2021/04/26 02:49:26;;;;;;;;;25.60;23.00;;;;;9.18;35.24;99070.72;6284145;27;96994;-63
2021/04/26 02:52:30;;;;;;;;;27.80;23.00;;;;;9.25;34.92;99076.91;6285502;27;97024;-62
2021/04/26 02:55:35;;;;;;;;;28.60;21.80;;;;;9.23;35.17;99084.38;6276854;27;97366;-62
2021/04/26 02:58:38;;;;;;;;;30.00;27.00;;;;;9.30;35.14;99085.19;6269278;27;99726;-62
2021/04/26 03:01:52;;;;;;;;;30.50;24.50;;;;;9.31;35.17;99080.63;6279105;27;97479;-62
2021/04/26 03:04:59;;;;;;;;;22.00;20.00;;;;;9.24;35.13;99079.78;6285625;27;97996;-62
2021/04/26 03:08:02;;;;;;;;;27.60;25.00;;;;;9.21;35.16;99086.44;6285263;27;97351;-62
2021/04/26 03:11:07;;;;;;;;;24.00;23.40;;;;;9.16;35.31;99078.16;6272393;27;96701;-62
2021/04/26 03:14:12;;;;;;;;;26.00;24.00;;;;;9.15;35.54;99087.25;6274355;27;98131;-62
2021/04/26 03:17:17;;;;;;;;;30.50;26.50;;;;;9.15;35.54;99098.00;6281890;27;96736;-62
2021/04/26 03:20:32;;;;;;;;;28.00;26.60;;;;;9.11;35.75;99092.22;6306894;27;97124;-62
2021/04/26 03:23:45;;;;;;;;;28.00;27.00;;;;;8.96;35.92;99104.22;6289023;27;96509;-62
2021/04/26 03:26:50;;;;;;;;;30.60;26.60;;;;;8.81;36.46;99103.59;6290021;27;97009;-63
2021/04/26 03:29:53;;;;;;;;;29.00;25.60;;;;;8.77;36.66;99108.56;6274161;27;97946;-62
2021/04/26 03:33:00;;;;;;;;;29.50;25.50;;;;;8.69;36.82;99109.59;6277147;27;97499;-62
2021/04/26 03:36:05;;;;;;;;;32.00;27.80;;;;;8.70;37.03;99107.69;6286532;27;96466;-63
2021/04/26 03:39:10;;;;;;;;;32.60;27.00;;;;;8.70;36.93;99100.47;6275797;27;99511;-62
2021/04/26 03:42:15;;;;;;;;;30.00;26.00;;;;;8.43;37.44;99088.03;6287352;27;97837;-62
2021/04/26 03:45:17;;;;;;;;;27.50;24.00;;;;;8.47;37.57;99108.06;6290010;27;98460;-62
2021/04/26 03:48:40;;;;;;;;;29.20;26.20;;;;;8.35;38.04;99112.41;6251180;27;97940;-62
2021/04/26 03:51:50;;;;;;;;;32.00;27.50;;;;;8.29;38.18;99118.53;6288478;27;96751;-62
2021/04/26 03:55:23;;;;;;;;;35.25;29.25;;;;;8.21;38.32;99116.00;6288824;27;97125;-63
2021/04/26 03:58:26;;;;;;;;;33.60;31.60;;;;;8.19;38.40;99110.03;6289003;27;96344;-62
2021/04/26 04:01:29;;;;;;;;;39.25;33.00;;;;;8.13;38.68;99113.50;6288231;27;97350;-62
2021/04/26 04:04:33;;;;;;;;;38.75;31.50;;;;;8.09;38.87;99113.09;6275790;27;96609;-62
2021/04/26 04:07:47;;;;;;;;;37.00;31.60;;;;;8.12;38.71;99125.25;6289925;27;96603;-62
2021/04/26 04:11:08;;;;;;;;;42.50;35.00;;;;;8.19;38.87;99131.50;6280884;27;96479;-62
2021/04/26 04:14:39;;;;;;;;;38.60;33.00;;;;;8.17;39.10;99134.38;6264418;27;98107;-62
2021/04/26 04:17:44;;;;;;;;;42.00;35.00;;;;;8.15;39.16;99133.78;6280688;27;96864;-62
2021/04/26 04:20:47;;;;;;;;;38.40;33.00;;;;;8.27;39.08;99134.00;6282798;27;96802;-62
2021/04/26 04:23:50;;;;;;;;;40.60;34.60;;;;;8.18;38.92;99113.72;6270378;27;99142;-62
2021/04/26 04:26:54;;;;;;;;;41.67;35.00;;;;;8.48;38.75;99139.28;6289365;27;99055;-62
2021/04/26 04:29:57;;;;;;;;;43.00;35.00;;;;;8.48;38.74;99125.03;6284743;27;98145;-62
2021/04/26 04:33:18;;;;;;;;;43.00;35.00;;;;;8.58;38.75;99133.53;6287218;27;97967;-62
2021/04/26 04:36:39;;;;;;;;;43.80;36.00;;;;;8.73;38.65;99146.78;6281892;27;97448;-62
2021/04/26 04:40:19;;;;;;;;;44.00;36.40;;;;;9.01;38.51;99150.16;6234470;28;100504;-62
2021/04/26 04:43:35;;;;;;;;;38.00;33.00;;;;;9.09;38.27;99156.16;6219440;27;97920;-62
2021/04/26 04:46:50;;;;;;;;;47.00;38.00;;;;;9.17;37.86;99144.38;6287431;27;96895;-62
2021/04/26 04:49:58;;;;;;;;;45.00;35.00;;;;;9.16;38.29;99147.25;6286104;27;97568;-62
2021/04/26 04:53:01;;;;;;;;;47.00;37.40;;;;;9.23;38.00;99150.78;6287042;27;96849;-62
2021/04/26 04:56:05;;;;;;;;;43.50;36.00;;;;;9.23;38.11;99157.00;6271499;27;99243;-62
2021/04/26 04:59:15;;;;;;;;;48.25;38.00;;;;;9.41;38.06;99151.81;6295792;27;97332;-62
2021/04/26 05:02:22;;;;;;;;;45.00;36.00;;;;;9.45;38.04;99154.91;6285394;27;96606;-62
2021/04/26 05:05:56;;;;;;;;;47.00;38.00;;;;;9.52;38.14;99153.91;6272204;27;99151;-62
2021/04/26 05:09:17;;;;;;;;;45.00;37.00;;;;;9.69;37.83;99156.97;6273411;27;98680;-63
2021/04/26 05:12:38;;;;;;;;;47.00;36.00;;;;;9.73;37.89;99151.97;6262659;27;98918;-63
2021/04/26 05:15:47;;;;;;;;;46.00;37.00;;;;;9.76;37.85;99148.88;6272517;27;98390;-62
2021/04/26 05:18:49;;;;;;;;;48.25;38.25;;;;;9.78;37.82;99149.50;6281910;27;96761;-62
2021/04/26 05:21:52;;;;;;;;;46.75;37.00;;;;;9.90;37.62;99156.72;6284407;27;96514;-62
2021/04/26 05:24:55;;;;;;;;;47.00;38.40;;;;;10.07;37.56;99154.38;6285297;27;98134;-63
2021/04/26 05:27:57;;;;;;;;;47.00;38.00;;;;;10.16;37.35;99155.88;6279071;27;96731;-62
2021/04/26 05:31:01;;;;;;;;;45.50;36.50;;;;;10.37;37.02;99154.72;6283734;27;97841;-62
2021/04/26 05:34:04;;;;;;;;;47.20;38.00;;;;;10.50;36.60;99151.16;6267288;27;97374;-63
2021/04/26 05:37:13;;;;;;;;;50.00;41.00;;;;;10.53;36.72;99148.88;6270505;27;97420;-62
2021/04/26 05:40:16;;;;;;;;;51.20;39.60;;;;;10.55;36.17;99137.88;6284938;27;96649;-62
2021/04/26 05:43:21;;;;;;;;;49.00;39.00;;;;;10.67;36.18;99155.00;6271970;27;96775;-63
2021/04/26 05:46:28;;;;;;;;;47.40;38.00;;;;;10.73;36.06;99152.28;6275193;27;97188;-62
2021/04/26 05:49:30;;;;;;;;;45.00;38.00;;;;;10.77;35.98;99144.59;6271749;27;99163;-63
2021/04/26 05:52:32;;;;;;;;;43.25;36.25;;;;;10.95;35.56;99151.94;6272299;27;99236;-62
2021/04/26 05:55:34;;;;;;;;;46.50;36.00;;;;;10.91;35.56;99132.66;6280918;27;97205;-63
2021/04/26 05:58:37;;;;;;;;;45.00;36.00;;;;;11.25;35.24;99150.25;6274219;27;97668;-64
2021/04/26 06:01:40;;;;;;;;;45.60;36.40;;;;;11.27;34.75;99153.56;6275224;27;96717;-63
2021/04/26 06:04:43;;;;;;;;;45.40;37.40;;;;;11.34;34.72;99146.25;6283692;27;99211;-62
2021/04/26 06:07:45;;;;;;;;;46.60;38.00;;;;;11.38;34.54;99152.03;6286425;27;97037;-64
2021/04/26 06:10:48;;;;;;;;;48.00;40.00;;;;;11.41;34.24;99135.41;6286886;27;97630;-63
2021/04/26 06:13:50;;;;;;;;;40.60;34.20;;;;;11.66;33.34;99147.84;6293156;27;97197;-63
2021/04/26 06:16:53;;;;;;;;;41.80;33.20;;;;;11.82;33.06;99141.06;6285273;27;98137;-63
2021/04/26 06:19:55;;;;;;;;;44.20;35.80;;;;;11.94;32.58;99141.13;6271002;27;97963;-63
2021/04/26 06:22:58;;;;;;;;;43.60;35.00;;;;;12.02;32.74;99141.66;6286203;27;100248;-63
2021/04/26 06:26:00;;;;;;;;;45.00;35.00;;;;;12.08;32.89;99139.94;6285969;27;99146;-63
2021/04/26 06:29:03;;;;;;;;;43.00;35.80;;;;;12.24;32.72;99135.81;6285751;27;97822;-63
2021/04/26 06:32:06;;;;;;;;;40.75;34.25;;;;;12.34;32.76;99133.41;6274809;27;97589;-62
2021/04/26 06:35:09;;;;;;;;;41.80;34.60;;;;;12.44;32.88;99126.41;6277101;27;96490;-63
2021/04/26 06:38:13;;;;;;;;;36.40;32.00;;;;;12.62;31.07;99135.53;6282399;27;97194;-63
2021/04/26 06:41:15;;;;;;;;;33.60;30.00;;;;;12.93;31.03;99125.31;6269725;27;97695;-63
2021/04/26 06:44:22;;;;;;;;;37.00;32.00;;;;;13.09;30.25;99121.13;6271327;27;97454;-63
2021/04/26 06:47:25;;;;;;;;;34.00;31.00;;;;;13.27;29.97;99126.47;6278740;27;99359;-63
2021/04/26 06:50:31;;;;;;;;;32.25;29.00;;;;;13.45;29.29;99129.06;6274569;27;98250;-63
2021/04/26 06:53:33;;;;;;;;;33.00;29.75;;;;;13.57;28.52;99129.09;6274550;27;97096;-63
2021/04/26 06:56:35;;;;;;;;;28.00;25.50;;;;;13.94;27.78;99129.66;6280656;27;98088;-64
2021/04/26 06:59:37;;;;;;;;;22.00;21.00;;;;;14.21;26.56;99130.81;6272848;27;98107;-64
2021/04/26 07:02:41;;;;;;;;;27.20;25.00;;;;;14.55;25.98;99115.53;6275195;27;96762;-63
2021/04/26 07:05:44;;;;;;;;;25.50;21.75;;;;;14.88;25.64;99122.09;6268690;27;99165;-64
2021/04/26 07:08:46;;;;;;;;;23.00;21.00;;;;;15.05;25.00;99112.09;6285949;27;96700;-62
2021/04/26 07:11:49;;;;;;;;;25.40;22.40;;;;;15.02;25.03;99115.28;6284713;27;96463;-63
2021/04/26 07:14:52;;;;;;;;;25.00;23.60;;;;;15.03;25.24;99122.38;6285071;27;96509;-62
2021/04/26 07:17:55;;;;;;;;;22.00;21.00;;;;;15.07;24.62;99113.50;6285180;27;96489;-63
2021/04/26 07:20:57;;;;;;;;;26.00;24.00;;;;;15.14;25.04;99119.59;6283986;27;98431;-62
2021/04/26 07:24:00;;;;;;;;;24.00;22.00;;;;;15.27;24.85;99113.03;6282813;27;96988;-62
2021/04/26 07:27:02;;;;;;;;;24.00;22.00;;;;;15.43;25.05;99106.78;6275352;27;99102;-64
2021/04/26 07:30:06;;;;;;;;;25.80;23.00;;;;;15.48;24.99;99123.16;6284738;27;96773;-63
2021/04/26 07:33:09;;;;;;;;;22.00;20.40;;;;;15.67;24.50;99118.31;6280481;27;96703;-63
2021/04/26 07:36:12;;;;;;;;;25.00;23.00;;;;;15.86;24.02;99127.00;6281654;27;97539;-63
2021/04/26 07:39:15;;;;;;;;;21.40;21.40;;;;;16.09;24.44;99115.91;6284476;27;96538;-63
2021/04/26 07:42:17;;;;;;;;;24.00;21.00;;;;;16.23;24.25;99116.34;6284537;27;96403;-63
2021/04/26 07:45:20;;;;;;;;;20.40;19.40;;;;;16.57;24.45;99115.13;6284766;27;97650;-65
2021/04/26 07:48:23;;;;;;;;;15.00;14.60;;;;;16.88;22.61;99116.31;6284379;27;96702;-64
2021/04/26 07:51:25;;;;;;;;;15.00;14.00;;;;;17.11;22.06;99120.63;6276664;27;96562;-64
2021/04/26 07:54:28;;;;;;;;;13.00;11.20;;;;;17.20;21.26;99111.72;6273358;27;97467;-64
2021/04/26 07:57:32;;;;;;;;;13.00;12.00;;;;;17.33;21.38;99110.47;6284932;27;98226;-64
2021/04/26 08:01:03;;;;;;;;;13.00;11.00;;;;;17.41;20.43;99118.16;6243828;27;97359;-63
2021/04/26 08:04:27;;;;;;;;;12.75;12.00;;;;;17.16;20.99;99115.22;6231996;27;96894;-62
2021/04/26 08:07:50;;;;;;;;;13.00;12.00;;;;;16.96;20.90;99106.88;6209225;27;97309;-63
2021/04/26 08:11:12;;;;;;;;;16.00;16.00;;;;;16.83;21.04;99113.56;6256339;27;97720;-62
2021/04/26 08:14:35;;;;;;;;;12.00;9.60;;;;;16.59;20.57;99112.19;6231026;27;99192;-63
2021/04/26 08:17:58;;;;;;;;;13.00;12.20;;;;;16.61;20.84;99105.44;6251915;27;97022;-63
2021/04/26 08:21:22;;;;;;;;;12.00;11.00;;;;;16.43;21.37;99125.59;6220469;27;97158;-63
2021/04/26 08:24:45;;;;;;;;;14.75;13.00;;;;;16.30;21.31;99112.38;6238358;27;96785;-63
2021/04/26 08:28:08;;;;;;;;;12.60;11.60;;;;;16.27;20.93;99087.59;6244308;27;97876;-63
2021/04/26 08:31:30;;;;;;;;;12.60;12.00;;;;;16.39;21.20;99102.69;6219278;27;96689;-63
2021/04/26 08:34:54;;;;;;;;;16.00;15.00;;;;;16.67;21.30;99101.66;6231209;27;97948;-63
2021/04/26 08:38:17;;;;;;;;;12.00;12.00;;;;;16.67;20.96;99107.13;6228026;27;96652;-63
2021/04/26 08:41:40;;;;;;;;;14.00;12.60;;;;;16.43;21.28;99106.53;6243361;27;97339;-63
2021/04/26 08:45:04;;;;;;;;;13.60;12.60;;;;;16.23;21.48;99103.56;6233604;27;97355;-63
2021/04/26 08:48:29;;;;;;;;;10.00;9.25;;;;;15.95;21.83;99107.28;6243775;27;96749;-63
2021/04/26 08:51:51;;;;;;;;;10.00;9.00;;;;;15.92;21.94;99118.69;6239751;27;96735;-63
2021/04/26 08:55:17;;;;;;;;;11.00;10.40;;;;;16.06;21.60;99107.44;6229071;27;97183;-62
2021/04/26 08:58:40;;;;;;;;;7.00;7.00;;;;;16.14;21.90;99107.00;6223437;27;97321;-64
2021/04/26 09:02:05;;;;;;;;;8.00;8.00;;;;;16.40;20.99;99108.97;6235235;27;96862;-63
2021/04/26 09:05:09;;;;;;;;;6.00;6.00;;;;;16.73;20.60;99106.09;6283616;27;124738;-64
2021/04/26 09:08:13;;;;;;;;;6.00;6.00;;;;;16.84;20.21;99102.41;6285347;27;127362;-64
2021/04/26 09:11:16;;;;;;;;;7.00;6.50;;;;;16.99;20.12;99104.47;6269481;27;127150;-64
2021/04/26 09:14:35;;;;;;;;;6.00;5.60;;;;;16.83;20.08;99102.66;6290314;27;127039;-63
2021/04/26 09:17:38;;;;;;;;;6.00;5.00;;;;;16.68;20.22;99103.31;6281724;27;125685;-63
2021/04/26 09:20:41;;;;;;;;;5.00;5.00;;;;;16.66;20.58;99110.94;6270125;27;125940;-63
2021/04/26 09:23:44;;;;;;;;;7.00;6.40;;;;;17.05;20.21;99099.88;6286240;27;126738;-64
2021/04/26 09:26:53;;;;;;;;;5.00;5.00;;;;;17.50;19.82;99104.88;6273234;27;124612;-63
2021/04/26 09:29:55;;;;;;;;;5.33;4.33;;;;;17.37;19.60;99097.97;6274657;27;124954;-63
2021/04/26 09:33:14;;;;;;;;;6.00;6.00;;;;;17.17;19.46;99098.63;6266398;27;126328;-63
2021/04/26 09:36:19;;;;;;;;;4.60;4.60;;;;;16.98;19.53;99093.81;6251697;27;125803;-63
2021/04/26 09:39:21;;;;;;;;;7.00;7.00;;;;;16.97;19.42;99100.34;6276293;27;127561;-63
2021/04/26 09:42:44;;;;;;;;;5.00;4.00;;;;;16.68;19.51;99091.59;6285365;27;96885;-64
2021/04/26 09:45:46;;;;;;;;;4.00;4.00;;;;;16.86;19.67;99083.06;6278157;27;96646;-63
2021/04/26 09:48:49;;;;;;;;;5.00;4.00;;;;;16.85;19.49;99092.34;6272115;27;127485;-63
2021/04/26 09:51:54;;;;;;;;;6.00;5.00;;;;;16.88;20.25;99092.66;6284160;27;125448;-63
2021/04/26 09:54:57;;;;;;;;;5.00;4.20;;;;;16.82;19.72;99068.34;6285749;27;123759;-63
2021/04/26 09:58:00;;;;;;;;;5.00;4.25;;;;;16.97;19.88;99086.72;6284844;27;123788;-63
2021/04/26 10:01:03;;;;;;;;;5.00;4.00;;;;;17.04;19.25;99090.06;6287791;27;97393;-63
2021/04/26 10:04:07;;;;;;;;;6.00;6.00;;;;;16.94;19.69;99084.53;6285010;27;124363;-63
2021/04/26 10:07:13;;;;;;;;;6.80;6.40;;;;;16.81;19.63;99080.34;6274472;27;96742;-63
2021/04/26 10:10:15;;;;;;;;;7.00;7.00;;;;;16.73;19.89;99087.03;6284317;27;124889;-63
2021/04/26 10:13:21;;;;;;;;;5.60;5.60;;;;;16.76;19.91;99083.00;6280200;27;125033;-63
2021/04/26 10:16:33;;;;;;;;;6.00;5.00;;;;;16.71;19.99;99089.19;6280702;27;96633;-64
2021/04/26 10:19:39;;;;;;;;;6.00;6.00;;;;;16.77;19.94;99084.63;6274226;27;97696;-64
2021/04/26 10:22:43;;;;;;;;;7.00;6.00;;;;;16.92;20.05;99086.66;6271431;27;97416;-64
2021/04/26 10:25:47;;;;;;;;;6.00;5.00;;;;;17.30;20.13;99070.09;6272371;27;123877;-64
2021/04/26 10:29:07;;;;;;;;;5.40;5.00;;;;;17.70;19.04;99070.44;6274750;27;127734;-64
2021/04/26 10:32:14;;;;;;;;;7.00;6.00;;;;;17.83;18.07;99073.78;6274975;27;127119;-64
2021/04/26 10:35:17;;;;;;;;;5.00;5.00;;;;;18.10;18.53;99067.09;6271489;27;96403;-64
2021/04/26 10:38:48;;;;;;;;;7.60;7.00;;;;;17.96;18.62;99067.84;6272867;27;96820;-64
2021/04/26 10:41:59;;;;;;;;;6.60;6.00;;;;;17.79;19.31;99053.59;6276966;27;96934;-63
2021/04/26 10:45:04;;;;;;;;;6.00;6.00;;;;;17.93;19.03;99052.03;6283519;27;97551;-63
2021/04/26 10:48:11;;;;;;;;;6.00;6.00;;;;;18.26;18.46;99054.34;6284279;27;125744;-66
2021/04/26 10:51:21;;;;;;;;;8.00;7.00;;;;;18.17;18.31;99045.88;6285551;27;97391;-64
2021/04/26 10:54:42;;;;;;;;;6.00;6.00;;;;;18.66;18.50;99050.13;6285291;27;125915;-64
2021/04/26 10:57:47;;;;;;;;;6.00;5.50;;;;;18.92;17.89;99041.69;6283336;27;97478;-64
2021/04/26 11:00:51;;;;;;;;;6.00;6.00;;;;;19.27;17.58;99040.88;6277418;27;97470;-63
2021/04/26 11:04:05;;;;;;;;;6.00;5.00;;;;;18.98;17.60;99056.16;6280716;27;97529;-64
2021/04/26 11:07:14;;;;;;;;;6.00;5.00;;;;;19.19;17.68;99037.88;6265188;27;97201;-64
2021/04/26 11:10:38;;;;;;;;;6.00;6.00;;;;;19.39;17.77;99037.88;6274000;27;97873;-63
2021/04/26 11:13:43;;;;;;;;;6.00;5.00;;;;;19.57;17.21;99025.53;6273116;27;96625;-64
2021/04/26 11:17:05;;;;;;;;;5.00;4.00;;;;;19.71;16.56;99008.28;6275666;27;97023;-63
2021/04/26 11:20:11;;;;;;;;;5.60;4.00;;;;;19.64;16.78;99018.72;6273897;27;96538;-63
2021/04/26 11:23:41;;;;;;;;;4.00;4.00;;;;;19.42;17.34;99032.66;6281287;27;96664;-64
2021/04/26 11:26:43;;;;;;;;;5.00;5.00;;;;;19.61;17.12;99029.38;6270858;27;96630;-63
2021/04/26 11:30:13;;;;;;;;;6.40;6.00;;;;;19.89;17.02;99026.81;6284515;27;96486;-63
2021/04/26 11:33:19;;;;;;;;;4.50;4.50;;;;;20.06;17.05;99025.66;6279278;27;96392;-63
2021/04/26 11:36:23;;;;;;;;;4.00;4.00;;;;;20.21;16.86;99025.59;6272873;27;97233;-64
2021/04/26 11:39:27;;;;;;;;;5.00;5.00;;;;;20.42;16.54;99010.75;6279059;27;97408;-64
2021/04/26 11:42:31;;;;;;;;;5.50;4.50;;;;;20.17;16.31;99019.88;6283735;27;97582;-64
2021/04/26 11:45:36;;;;;;;;;6.00;4.80;;;;;19.84;16.27;99009.63;6289778;27;97247;-64
2021/04/26 11:48:40;;;;;;;;;4.20;4.00;;;;;19.72;16.81;99007.19;6286176;27;97047;-63
2021/04/26 11:51:44;;;;;;;;;5.00;4.00;;;;;20.03;16.80;99004.34;6286427;27;97511;-63
2021/04/26 11:54:48;;;;;;;;;7.00;6.00;;;;;20.10;17.02;99018.53;6275984;27;97669;-64
2021/04/26 11:57:52;;;;;;;;;6.00;5.40;;;;;19.90;17.08;98998.38;6286051;27;96730;-63
2021/04/26 12:01:06;;;;;;;;;4.40;4.40;;;;;19.65;17.63;99001.19;6283399;27;97438;-64
2021/04/26 12:04:09;;;;;;;;;5.00;4.80;;;;;19.50;17.08;98997.69;6282543;27;97005;-63
2021/04/26 12:07:12;;;;;;;;;5.33;5.00;;;;;19.36;17.85;98995.47;6286464;27;96613;-63
2021/04/26 12:10:17;;;;;;;;;6.00;5.00;;;;;19.04;17.68;98984.03;6277761;27;97107;-63
2021/04/26 12:13:19;;;;;;;;;5.00;5.00;;;;;18.93;17.42;98976.94;6271142;27;96949;-63
2021/04/26 12:16:27;;;;;;;;;5.75;5.00;;;;;19.16;17.25;98981.00;6278093;27;97127;-63
2021/04/26 12:19:34;;;;;;;;;5.00;4.60;;;;;19.09;17.71;98969.56;6270237;27;96565;-64
2021/04/26 12:22:37;;;;;;;;;5.00;4.00;;;;;19.30;17.66;98971.19;6266695;27;96631;-64
2021/04/26 12:25:41;;;;;;;;;7.00;6.00;;;;;18.98;17.26;98935.94;6267013;27;97553;-64
2021/04/26 12:28:45;;;;;;;;;6.00;6.00;;;;;19.37;18.00;98961.56;6264479;27;96634;-64
2021/04/26 12:31:48;;;;;;;;;7.40;7.40;;;;;19.69;17.36;98968.63;6265800;27;97447;-64
2021/04/26 12:34:56;;;;;;;;;4.00;4.00;;;;;19.81;17.29;98959.00;6264893;27;96719;-64
2021/04/26 12:38:00;;;;;;;;;7.00;5.60;;;;;19.69;17.96;98955.78;6282200;27;97474;-64
2021/04/26 12:41:03;;;;;;;;;8.00;5.00;;;;;19.47;18.01;98952.56;6287253;27;97196;-64
2021/04/26 12:44:06;;;;;;;;;7.00;5.60;;;;;19.28;18.04;98946.03;6286215;27;97368;-64
2021/04/26 12:47:19;;;;;;;;;6.50;5.00;;;;;19.08;17.90;98946.88;6288074;27;97088;-63
2021/04/26 12:50:28;;;;;;;;;4.00;4.00;;;;;19.17;17.41;98944.41;6287900;27;97332;-63
2021/04/26 12:53:35;;;;;;;;;5.00;4.00;;;;;19.21;17.35;98935.38;6285651;27;96587;-63
2021/04/26 12:56:38;;;;;;;;;5.00;5.00;;;;;19.38;17.84;98922.22;6269446;27;96407;-64
2021/04/26 12:59:44;;;;;;;;;5.00;5.00;;;;;19.58;17.31;98921.34;6288997;27;96555;-63
2021/04/26 13:02:47;;;;;;;;;4.60;4.00;;;;;19.53;17.17;98885.81;6275690;27;96805;-62
2021/04/26 13:05:51;;;;;;;;;5.00;4.00;;;;;19.86;18.02;98901.53;6281489;27;97554;-62
2021/04/26 13:08:55;;;;;;;;;5.00;5.00;;;;;20.26;17.98;98892.25;6275117;27;96784;-62
2021/04/26 13:11:58;;;;;;;;;5.00;4.00;;;;;20.40;16.68;98891.63;6275530;27;97209;-63
2021/04/26 13:15:00;;;;;;;;;5.00;5.00;;;;;20.43;16.29;98891.88;6273132;27;96813;-62
2021/04/26 13:18:21;;;;;;;;;6.00;5.00;;;;;20.58;17.16;98878.06;6274089;27;97243;-62
2021/04/26 13:21:26;;;;;;;;;7.00;6.00;;;;;20.68;16.46;98874.41;6275656;27;97286;-63
2021/04/26 13:24:33;;;;;;;;;5.60;5.00;;;;;20.74;16.94;98871.34;6269828;27;97002;-63
2021/04/26 13:27:42;;;;;;;;;8.00;6.00;;;;;20.74;16.48;98857.66;6265976;27;96977;-62
2021/04/26 13:30:45;;;;;;;;;6.00;5.60;;;;;20.84;16.37;98864.97;6270894;27;97390;-62
2021/04/26 13:33:48;;;;;;;;;5.00;4.00;;;;;20.68;16.03;98858.78;6275048;27;96699;-62
2021/04/26 13:36:52;;;;;;;;;6.60;6.00;;;;;20.51;15.67;98861.16;6272947;27;97795;-64
2021/04/26 13:39:54;;;;;;;;;5.00;4.00;;;;;20.41;16.24;98861.25;6275657;27;97402;-63
2021/04/26 13:42:57;;;;;;;;;5.50;5.50;;;;;20.08;16.27;98823.69;6272610;27;96569;-63
2021/04/26 13:45:59;;;;;;;;;5.00;4.40;;;;;20.23;16.14;98848.22;6274939;27;97463;-62
2021/04/26 13:49:02;;;;;;;;;6.00;5.00;;;;;20.22;16.47;98850.13;6273944;27;97319;-62
2021/04/26 13:52:05;;;;;;;;;6.00;5.00;;;;;20.10;16.29;98846.91;6279283;27;98017;-62
2021/04/26 13:55:09;;;;;;;;;6.00;6.00;;;;;20.23;16.39;98831.78;6284093;27;96520;-63
2021/04/26 13:58:11;;;;;;;;;7.00;6.00;;;;;20.22;16.04;98824.69;6288027;27;97443;-63
2021/04/26 14:01:14;;;;;;;;;5.00;5.00;;;;;20.22;16.14;98830.97;6287599;27;98029;-63
2021/04/26 14:04:16;;;;;;;;;4.50;4.50;;;;;20.18;16.36;98838.09;6287470;27;97318;-63
2021/04/26 14:07:20;;;;;;;;;5.00;5.00;;;;;20.24;15.83;98827.94;6287722;27;97399;-63
2021/04/26 14:10:22;;;;;;;;;7.00;6.50;;;;;20.27;16.07;98819.97;6287166;27;96615;-63
2021/04/26 14:13:25;;;;;;;;;8.00;8.00;;;;;20.35;16.34;98821.31;6277934;27;97506;-63
2021/04/26 14:16:27;;;;;;;;;8.00;8.00;;;;;20.30;16.07;98810.38;6286377;27;97539;-63
2021/04/26 14:19:29;;;;;;;;;6.60;6.00;;;;;20.39;15.86;98816.06;6269115;27;97311;-63
2021/04/26 14:22:33;;;;;;;;;4.60;4.60;;;;;20.35;16.54;98804.06;6278415;27;96573;-63
2021/04/26 14:25:35;;;;;;;;;7.00;7.00;;;;;20.18;16.05;98807.19;6279659;27;97014;-64
2021/04/26 14:28:37;;;;;;;;;4.20;4.00;;;;;19.96;15.63;98807.63;6279629;27;97297;-63
2021/04/26 14:31:39;;;;;;;;;6.00;5.40;;;;;20.00;16.40;98805.13;6272145;27;97340;-64
2021/04/26 14:34:43;;;;;;;;;5.50;5.50;;;;;19.86;16.58;98791.28;6293766;27;96642;-63